sensor_id;sensor_type;location;lat;lon;timestamp;pressure;altitude;pressure_sealevel;temperature;humidity
29169;BME280;16219;42.864;23.360;2023-01-28T00:01:24;95194.97;;;2.10;100.00
29169;BME280;16219;42.864;23.360;2023-01-28T00:03:51;95199.66;;;2.08;100.00
29169;BME280;16219;42.864;23.360;2023-01-28T00:06:18;95195.78;;;2.05;100.00
29169;BME280;16219;42.864;23.360;2023-01-28T00:08:45;95204.28;;;2.16;100.00
29169;BME280;16219;42.864;23.360;2023-01-28T00:11:12;95202.53;;;2.06;100.00
29169;BME280;16219;42.864;23.360;2023-01-28T00:13:40;95209.50;;;2.11;100.00
29169;BME280;16219;42.864;23.360;2023-01-28T00:16:09;95207.97;;;2.10;100.00
29169;BME280;16219;42.864;23.360;2023-01-28T00:18:36;95212.66;;;2.08;100.00
29169;BME280;16219;42.864;23.360;2023-01-28T00:21:06;95218.13;;;2.06;100.00
29169;BME280;16219;42.864;23.360;2023-01-28T00:23:34;95219.44;;;2.04;100.00
29169;BME280;16219;42.864;23.360;2023-01-28T00:26:04;95221.25;;;2.08;100.00
29169;BME280;16219;42.864;23.360;2023-01-28T00:28:32;95214.50;;;2.02;100.00
29169;BME280;16219;42.864;23.360;2023-01-28T00:31:05;95221.53;;;2.02;100.00
29169;BME280;16219;42.864;23.360;2023-01-28T00:33:34;95229.06;;;2.03;100.00
29169;BME280;16219;42.864;23.360;2023-01-28T00:36:02;95233.50;;;2.03;100.00
29169;BME280;16219;42.864;23.360;2023-01-28T00:38:31;95235.06;;;2.04;100.00
29169;BME280;16219;42.864;23.360;2023-01-28T00:41:06;95237.91;;;2.07;100.00
29169;BME280;16219;42.864;23.360;2023-01-28T00:43:33;95238.66;;;2.08;100.00
29169;BME280;16219;42.864;23.360;2023-01-28T00:46:01;95234.84;;;1.95;100.00
29169;BME280;16219;42.864;23.360;2023-01-28T00:48:28;95235.09;;;1.98;100.00
29169;BME280;16219;42.864;23.360;2023-01-28T00:50:57;95239.47;;;2.03;100.00
29169;BME280;16219;42.864;23.360;2023-01-28T00:53:24;95236.13;;;1.97;100.00
29169;BME280;16219;42.864;23.360;2023-01-28T00:55:51;95239.75;;;2.02;100.00
29169;BME280;16219;42.864;23.360;2023-01-28T00:58:19;95243.13;;;2.02;100.00
29169;BME280;16219;42.864;23.360;2023-01-28T01:00:46;95244.94;;;2.07;100.00
29169;BME280;16219;42.864;23.360;2023-01-28T01:03:13;95236.13;;;1.97;100.00
29169;BME280;16219;42.864;23.360;2023-01-28T01:05:40;95243.13;;;2.02;100.00
29169;BME280;16219;42.864;23.360;2023-01-28T01:08:08;95248.56;;;2.06;100.00
29169;BME280;16219;42.864;23.360;2023-01-28T01:10:36;95244.44;;;1.99;100.00
29169;BME280;16219;42.864;23.360;2023-01-28T01:13:05;95247.03;;;2.05;100.00
29169;BME280;16219;42.864;23.360;2023-01-28T01:15:34;95241.06;;;1.99;100.00
29169;BME280;16219;42.864;23.360;2023-01-28T01:18:02;95239.78;;;1.96;100.00
29169;BME280;16219;42.864;23.360;2023-01-28T01:20:31;95242.63;;;2.00;100.00
29169;BME280;16219;42.864;23.360;2023-01-28T01:23:04;95249.16;;;1.97;100.00
29169;BME280;16219;42.864;23.360;2023-01-28T01:25:32;95247.81;;;2.05;100.00
29169;BME280;16219;42.864;23.360;2023-01-28T01:27:59;95252.00;;;2.01;100.00
29169;BME280;16219;42.864;23.360;2023-01-28T01:30:26;95254.31;;;2.03;100.00
29169;BME280;16219;42.864;23.360;2023-01-28T01:32:53;95251.19;;;2.06;100.00
29169;BME280;16219;42.864;23.360;2023-01-28T01:35:20;95257.16;;;2.06;100.00
29169;BME280;16219;42.864;23.360;2023-01-28T01:37:48;95259.50;;;2.03;100.00
29169;BME280;16219;42.864;23.360;2023-01-28T01:40:15;95250.97;;;1.97;100.00
29169;BME280;16219;42.864;23.360;2023-01-28T01:42:43;95260.31;;;1.98;100.00
29169;BME280;16219;42.864;23.360;2023-01-28T01:45:12;95251.75;;;1.97;100.00
29169;BME280;16219;42.864;23.360;2023-01-28T01:47:43;95250.44;;;2.00;100.00
29169;BME280;16219;42.864;23.360;2023-01-28T01:50:19;95249.41;;;1.96;100.00
29169;BME280;16219;42.864;23.360;2023-01-28T01:52:52;95251.47;;;1.99;100.00
29169;BME280;16219;42.864;23.360;2023-01-28T01:55:23;95253.81;;;2.00;100.00
29169;BME280;16219;42.864;23.360;2023-01-28T01:57:54;95257.72;;;1.98;100.00
29169;BME280;16219;42.864;23.360;2023-01-28T02:00:23;95260.59;;;1.96;100.00
29169;BME280;16219;42.864;23.360;2023-01-28T02:02:51;95257.47;;;1.94;100.00
29169;BME280;16219;42.864;23.360;2023-01-28T02:05:21;95264.75;;;1.97;100.00
29169;BME280;16219;42.864;23.360;2023-01-28T02:07:51;95262.94;;;1.98;100.00
29169;BME280;16219;42.864;23.360;2023-01-28T02:10:44;95264.72;;;2.03;100.00
29169;BME280;16219;42.864;23.360;2023-01-28T02:13:14;95263.69;;;1.98;100.00
29169;BME280;16219;42.864;23.360;2023-01-28T02:15:43;95266.81;;;2.00;100.00
29169;BME280;16219;42.864;23.360;2023-01-28T02:18:10;95270.69;;;2.03;100.00
29169;BME280;16219;42.864;23.360;2023-01-28T02:20:56;95276.75;;;1.93;100.00
29169;BME280;16219;42.864;23.360;2023-01-28T02:23:49;95272.84;;;1.91;100.00
29169;BME280;16219;42.864;23.360;2023-01-28T02:26:46;95273.91;;;1.85;100.00
29169;BME280;16219;42.864;23.360;2023-01-28T02:29:24;95271.03;;;1.91;100.00
29169;BME280;16219;42.864;23.360;2023-01-28T02:31:56;95258.06;;;1.81;100.00
29169;BME280;16219;42.864;23.360;2023-01-28T02:34:34;95275.69;;;1.94;100.00
29169;BME280;16219;42.864;23.360;2023-01-28T02:37:08;95279.34;;;1.93;100.00
29169;BME280;16219;42.864;23.360;2023-01-28T02:39:41;95266.84;;;1.90;100.00
29169;BME280;16219;42.864;23.360;2023-01-28T02:42:11;95272.63;;;1.82;100.00
29169;BME280;16219;42.864;23.360;2023-01-28T02:44:42;95276.50;;;1.85;100.00
29169;BME280;16219;42.864;23.360;2023-01-28T02:47:09;95276.00;;;1.88;100.00
29169;BME280;16219;42.864;23.360;2023-01-28T02:49:56;95273.13;;;1.89;100.00
29169;BME280;16219;42.864;23.360;2023-01-28T02:52:48;95281.41;;;1.96;100.00
29169;BME280;16219;42.864;23.360;2023-01-28T02:55:41;95274.13;;;1.93;100.00
29169;BME280;16219;42.864;23.360;2023-01-28T02:58:17;95265.88;;;1.81;100.00
29169;BME280;16219;42.864;23.360;2023-01-28T03:00:49;95267.94;;;1.84;100.00
29169;BME280;16219;42.864;23.360;2023-01-28T03:03:25;95259.16;;;1.75;100.00
29169;BME280;16219;42.864;23.360;2023-01-28T03:05:56;95265.91;;;1.76;100.00
29169;BME280;16219;42.864;23.360;2023-01-28T03:08:38;95270.00;;;1.87;100.00
29169;BME280;16219;42.864;23.360;2023-01-28T03:11:23;95271.03;;;1.91;100.00
29169;BME280;16219;42.864;23.360;2023-01-28T03:14:09;95267.63;;;1.91;100.00
29169;BME280;16219;42.864;23.360;2023-01-28T03:16:59;95272.28;;;1.99;100.00
29169;BME280;16219;42.864;23.360;2023-01-28T03:19:45;95272.53;;;2.03;100.00
29169;BME280;16219;42.864;23.360;2023-01-28T03:22:32;95272.56;;;1.97;100.00
29169;BME280;16219;42.864;23.360;2023-01-28T03:25:19;95278.56;;;1.93;100.00
29169;BME280;16219;42.864;23.360;2023-01-28T03:28:09;95280.88;;;1.94;100.00
29169;BME280;16219;42.864;23.360;2023-01-28T03:31:03;95278.28;;;1.94;100.00
29169;BME280;16219;42.864;23.360;2023-01-28T03:33:54;95276.50;;;1.90;100.00
29169;BME280;16219;42.864;23.360;2023-01-28T03:36:40;95285.59;;;1.92;100.00
29169;BME280;16219;42.864;23.360;2023-01-28T03:39:36;95288.69;;;1.94;100.00
29169;BME280;16219;42.864;23.360;2023-01-28T03:42:06;95288.94;;;1.98;100.00
29169;BME280;16219;42.864;23.360;2023-01-28T03:44:40;95284.81;;;1.92;100.00
29169;BME280;16219;42.864;23.360;2023-01-28T03:47:31;95286.88;;;1.95;100.00
29169;BME280;16219;42.864;23.360;2023-01-28T03:50:01;95289.75;;;1.93;100.00
29169;BME280;16219;42.864;23.360;2023-01-28T03:52:37;95291.84;;;1.91;100.00
29169;BME280;16219;42.864;23.360;2023-01-28T03:55:30;95283.78;;;1.88;100.00
29169;BME280;16219;42.864;23.360;2023-01-28T03:57:57;95292.34;;;1.93;100.00
29169;BME280;16219;42.864;23.360;2023-01-28T04:00:24;95298.56;;;1.97;100.00
29169;BME280;16219;42.864;23.360;2023-01-28T04:02:55;95305.31;;;1.98;100.00
29169;BME280;16219;42.864;23.360;2023-01-28T04:05:24;95301.66;;;1.99;100.00
29169;BME280;16219;42.864;23.360;2023-01-28T04:07:53;95303.50;;;1.99;100.00
29169;BME280;16219;42.864;23.360;2023-01-28T04:10:40;95309.22;;;2.01;100.00
29169;BME280;16219;42.864;23.360;2023-01-28T04:13:37;95309.00;;;1.92;100.00
29169;BME280;16219;42.864;23.360;2023-01-28T04:16:05;95301.50;;;1.81;100.00
29169;BME280;16219;42.864;23.360;2023-01-28T04:18:40;95309.56;;;1.84;100.00
29169;BME280;16219;42.864;23.360;2023-01-28T04:21:08;95312.41;;;1.88;100.00
29169;BME280;16219;42.864;23.360;2023-01-28T04:23:36;95317.31;;;1.89;100.00
29169;BME280;16219;42.864;23.360;2023-01-28T04:26:05;95316.84;;;1.87;100.00
29169;BME280;16219;42.864;23.360;2023-01-28T04:28:33;95310.31;;;1.85;100.00
29169;BME280;16219;42.864;23.360;2023-01-28T04:31:00;95322.25;;;1.91;100.00
29169;BME280;16219;42.864;23.360;2023-01-28T04:33:46;95318.88;;;1.90;100.00
29169;BME280;16219;42.864;23.360;2023-01-28T04:36:25;95311.88;;;1.86;100.00
29169;BME280;16219;42.864;23.360;2023-01-28T04:39:22;95317.91;;;1.76;100.00
29169;BME280;16219;42.864;23.360;2023-01-28T04:42:12;95319.75;;;1.70;100.00
29169;BME280;16219;42.864;23.360;2023-01-28T04:45:06;95329.59;;;1.73;100.00
29169;BME280;16219;42.864;23.360;2023-01-28T04:47:59;95335.06;;;1.77;100.00
29169;BME280;16219;42.864;23.360;2023-01-28T04:50:54;95323.91;;;1.71;100.00
29169;BME280;16219;42.864;23.360;2023-01-28T04:53:35;95341.28;;;1.81;100.00
29169;BME280;16219;42.864;23.360;2023-01-28T04:56:07;95341.81;;;1.83;100.00
29169;BME280;16219;42.864;23.360;2023-01-28T04:58:35;95341.03;;;1.83;100.00
29169;BME280;16219;42.864;23.360;2023-01-28T05:01:05;95340.22;;;1.82;100.00
29169;BME280;16219;42.864;23.360;2023-01-28T05:03:33;95340.75;;;1.84;100.00
29169;BME280;16219;42.864;23.360;2023-01-28T05:06:00;95344.91;;;1.85;100.00
29169;BME280;16219;42.864;23.360;2023-01-28T05:08:42;95341.78;;;1.88;100.00
29169;BME280;16219;42.864;23.360;2023-01-28T05:11:12;95341.78;;;1.88;100.00
29169;BME280;16219;42.864;23.360;2023-01-28T05:13:40;95348.53;;;1.89;100.00
29169;BME280;16219;42.864;23.360;2023-01-28T05:16:10;95343.09;;;1.86;100.00
29169;BME280;16219;42.864;23.360;2023-01-28T05:18:37;95348.03;;;1.92;100.00
29169;BME280;16219;42.864;23.360;2023-01-28T05:21:10;95360.50;;;1.90;100.00
29169;BME280;16219;42.864;23.360;2023-01-28T05:23:38;95361.50;;;1.99;100.00
29169;BME280;16219;42.864;23.360;2023-01-28T05:26:07;95360.50;;;1.90;100.00
29169;BME280;16219;42.864;23.360;2023-01-28T05:28:34;95365.69;;;1.90;100.00
29169;BME280;16219;42.864;23.360;2023-01-28T05:31:02;95370.91;;;1.90;100.00
29169;BME280;16219;42.864;23.360;2023-01-28T05:33:30;95367.28;;;1.81;100.00
29169;BME280;16219;42.864;23.360;2023-01-28T05:35:57;95374.31;;;1.81;100.00
29169;BME280;16219;42.864;23.360;2023-01-28T05:38:24;95368.88;;;1.72;100.00
29169;BME280;16219;42.864;23.360;2023-01-28T05:40:52;95360.56;;;1.65;100.00
29169;BME280;16219;42.864;23.360;2023-01-28T05:43:20;95379.25;;;1.82;100.00
29169;BME280;16219;42.864;23.360;2023-01-28T05:46:00;95385.78;;;1.80;100.00
29169;BME280;16219;42.864;23.360;2023-01-28T05:48:57;95385.53;;;1.66;100.00
29169;BME280;16219;42.864;23.360;2023-01-28T05:51:48;95392.31;;;1.62;100.00
29169;BME280;16219;42.864;23.360;2023-01-28T05:54:18;95388.13;;;1.71;100.00
29169;BME280;16219;42.864;23.360;2023-01-28T05:56:46;95396.19;;;1.74;100.00
29169;BME280;16219;42.864;23.360;2023-01-28T05:59:14;95387.59;;;1.74;100.00
29169;BME280;16219;42.864;23.360;2023-01-28T06:01:43;95389.91;;;1.81;100.00
29169;BME280;16219;42.864;23.360;2023-01-28T06:04:10;95399.53;;;1.85;100.00
29169;BME280;16219;42.864;23.360;2023-01-28T06:06:38;95402.88;;;1.91;100.00
29169;BME280;16219;42.864;23.360;2023-01-28T06:09:05;95404.22;;;1.78;100.00
29169;BME280;16219;42.864;23.360;2023-01-28T06:11:34;95404.00;;;1.74;100.00
29169;BME280;16219;42.864;23.360;2023-01-28T06:14:03;95411.81;;;1.59;100.00
29169;BME280;16219;42.864;23.360;2023-01-28T06:16:50;95419.09;;;1.62;100.00
29169;BME280;16219;42.864;23.360;2023-01-28T06:19:24;95418.56;;;1.70;100.00
29169;BME280;16219;42.864;23.360;2023-01-28T06:21:52;95429.44;;;1.78;100.00
29169;BME280;16219;42.864;23.360;2023-01-28T06:24:19;95427.13;;;1.76;100.00
29169;BME280;16219;42.864;23.360;2023-01-28T06:26:46;95428.66;;;1.77;100.00
29169;BME280;16219;42.864;23.360;2023-01-28T06:29:14;95424.25;;;1.72;100.00
29169;BME280;16219;42.864;23.360;2023-01-28T06:31:41;95439.59;;;1.79;100.00
29169;BME280;16219;42.864;23.360;2023-01-28T06:34:09;95441.16;;;1.85;100.00
29169;BME280;16219;42.864;23.360;2023-01-28T06:36:37;95431.03;;;1.68;100.00
29169;BME280;16219;42.864;23.360;2023-01-28T06:39:04;95435.47;;;1.63;100.00
29169;BME280;16219;42.864;23.360;2023-01-28T06:41:31;95434.94;;;1.56;100.00
29169;BME280;16219;42.864;23.360;2023-01-28T06:43:59;95447.94;;;1.71;100.00
29169;BME280;16219;42.864;23.360;2023-01-28T06:46:26;95444.56;;;1.60;100.00
29169;BME280;16219;42.864;23.360;2023-01-28T06:48:54;95438.56;;;1.60;100.00
29169;BME280;16219;42.864;23.360;2023-01-28T06:51:22;95454.69;;;1.77;100.00
29169;BME280;16219;42.864;23.360;2023-01-28T06:53:49;95467.44;;;1.68;100.00
29169;BME280;16219;42.864;23.360;2023-01-28T06:56:16;95466.38;;;1.64;100.00
29169;BME280;16219;42.864;23.360;2023-01-28T06:58:43;95465.88;;;1.67;100.00
29169;BME280;16219;42.864;23.360;2023-01-28T07:01:11;95449.50;;;1.52;100.00
29169;BME280;16219;42.864;23.360;2023-01-28T07:03:38;95470.03;;;1.73;100.00
29169;BME280;16219;42.864;23.360;2023-01-28T07:06:15;95463.00;;;1.74;100.00
29169;BME280;16219;42.864;23.360;2023-01-28T07:08:46;95478.09;;;1.72;100.00
29169;BME280;16219;42.864;23.360;2023-01-28T07:11:14;95474.47;;;1.63;100.00
29169;BME280;16219;42.864;23.360;2023-01-28T07:13:41;95482.78;;;1.80;100.00
29169;BME280;16219;42.864;23.360;2023-01-28T07:16:09;95484.56;;;1.90;100.00
29169;BME280;16219;42.864;23.360;2023-01-28T07:18:36;95482.78;;;1.80;100.00
29169;BME280;16219;42.864;23.360;2023-01-28T07:21:04;95485.91;;;1.87;100.00
29169;BME280;16219;42.864;23.360;2023-01-28T07:23:31;95494.72;;;1.86;100.00
29169;BME280;16219;42.864;23.360;2023-01-28T07:26:01;95500.47;;;1.83;100.00
29169;BME280;16219;42.864;23.360;2023-01-28T07:28:29;95506.41;;;1.94;100.00
29169;BME280;16219;42.864;23.360;2023-01-28T07:30:57;95499.94;;;1.81;100.00
29169;BME280;16219;42.864;23.360;2023-01-28T07:33:24;95515.53;;;1.76;100.00
29169;BME280;16219;42.864;23.360;2023-01-28T07:35:51;95517.88;;;1.72;100.00
29169;BME280;16219;42.864;23.360;2023-01-28T07:38:18;95529.34;;;1.66;100.00
29169;BME280;16219;42.864;23.360;2023-01-28T07:40:46;95523.34;;;1.66;100.00
29169;BME280;16219;42.864;23.360;2023-01-28T07:43:14;95526.47;;;1.68;100.00
29169;BME280;16219;42.864;23.360;2023-01-28T07:45:42;95517.63;;;1.59;100.00
29169;BME280;16219;42.864;23.360;2023-01-28T07:48:11;95508.25;;;1.42;100.00
29169;BME280;16219;42.864;23.360;2023-01-28T07:50:39;95532.72;;;1.62;100.00
29169;BME280;16219;42.864;23.360;2023-01-28T07:53:08;95519.44;;;1.58;100.00
29169;BME280;16219;42.864;23.360;2023-01-28T07:55:35;95509.53;;;1.35;100.00
29169;BME280;16219;42.864;23.360;2023-01-28T07:58:04;95529.56;;;1.49;100.00
29169;BME280;16219;42.864;23.360;2023-01-28T08:00:35;95523.84;;;1.47;100.00
29169;BME280;16219;42.864;23.360;2023-01-28T08:03:04;95528.25;;;1.52;100.00
29169;BME280;16219;42.864;23.360;2023-01-28T08:05:37;95538.16;;;1.50;100.00
29169;BME280;16219;42.864;23.360;2023-01-28T08:08:07;95530.09;;;1.52;100.00
29169;BME280;16219;42.864;23.360;2023-01-28T08:10:34;95534.00;;;1.54;100.00
29169;BME280;16219;42.864;23.360;2023-01-28T08:13:02;95537.09;;;1.56;100.00
29169;BME280;16219;42.864;23.360;2023-01-28T08:15:29;95535.56;;;1.55;100.00
29169;BME280;16219;42.864;23.360;2023-01-28T08:17:59;95548.81;;;1.54;100.00
29169;BME280;16219;42.864;23.360;2023-01-28T08:20:27;95545.19;;;1.55;100.00
29169;BME280;16219;42.864;23.360;2023-01-28T08:23:04;95551.41;;;1.59;100.00
29169;BME280;16219;42.864;23.360;2023-01-28T08:25:32;95548.03;;;1.53;100.00
29169;BME280;16219;42.864;23.360;2023-01-28T08:28:00;95551.66;;;1.52;100.00
29169;BME280;16219;42.864;23.360;2023-01-28T08:30:27;95551.38;;;1.48;100.00
29169;BME280;16219;42.864;23.360;2023-01-28T08:32:55;95553.47;;;1.46;100.00
29169;BME280;16219;42.864;23.360;2023-01-28T08:35:24;95561.53;;;1.45;100.00
29169;BME280;16219;42.864;23.360;2023-01-28T08:37:52;95559.22;;;1.54;100.00
29169;BME280;16219;42.864;23.360;2023-01-28T08:40:20;95551.16;;;1.55;100.00
29169;BME280;16219;42.864;23.360;2023-01-28T08:42:47;95561.81;;;1.59;100.00
29169;BME280;16219;42.864;23.360;2023-01-28T08:45:15;95554.56;;;1.66;100.00
29169;BME280;16219;42.864;23.360;2023-01-28T08:47:49;95560.00;;;1.80;100.00
29169;BME280;16219;42.864;23.360;2023-01-28T08:50:17;95557.69;;;1.88;100.00
29169;BME280;16219;42.864;23.360;2023-01-28T08:52:46;95560.28;;;1.93;100.00
29169;BME280;16219;42.864;23.360;2023-01-28T08:55:14;95570.41;;;2.05;100.00
29169;BME280;16219;42.864;23.360;2023-01-28T08:57:43;95561.06;;;2.09;100.00
29169;BME280;16219;42.864;23.360;2023-01-28T09:00:11;95564.19;;;2.01;100.00
29169;BME280;16219;42.864;23.360;2023-01-28T09:02:39;95566.78;;;1.96;100.00
29169;BME280;16219;42.864;23.360;2023-01-28T09:05:07;95556.63;;;1.79;100.00
29169;BME280;16219;42.864;23.360;2023-01-28T09:07:36;95555.84;;;1.63;100.00
29169;BME280;16219;42.864;23.360;2023-01-28T09:10:05;95575.34;;;1.76;100.00
29169;BME280;16219;42.864;23.360;2023-01-28T09:12:32;95568.56;;;1.65;100.00
29169;BME280;16219;42.864;23.360;2023-01-28T09:14:59;95580.56;;;1.66;100.00
29169;BME280;16219;42.864;23.360;2023-01-28T09:17:27;95579.50;;;1.62;100.00
29169;BME280;16219;42.864;23.360;2023-01-28T09:19:54;95565.97;;;1.70;100.00
29169;BME280;16219;42.864;23.360;2023-01-28T09:22:21;95571.72;;;1.67;100.00
29169;BME280;16219;42.864;23.360;2023-01-28T09:24:48;95562.88;;;1.73;100.00
29169;BME280;16219;42.864;23.360;2023-01-28T09:27:17;95555.06;;;1.73;100.00
29169;BME280;16219;42.864;23.360;2023-01-28T09:29:45;95557.69;;;1.83;100.00
29169;BME280;16219;42.864;23.360;2023-01-28T09:32:12;95561.31;;;1.82;100.00
29169;BME280;16219;42.864;23.360;2023-01-28T09:34:39;95560.28;;;1.83;100.00
29169;BME280;16219;42.864;23.360;2023-01-28T09:37:06;95555.06;;;1.98;100.00
29169;BME280;16219;42.864;23.360;2023-01-28T09:39:33;95552.47;;;2.09;100.00
29169;BME280;16219;42.864;23.360;2023-01-28T09:42:29;95558.94;;;2.16;100.00
29169;BME280;16219;42.864;23.360;2023-01-28T09:45:10;95555.56;;;2.26;100.00
29169;BME280;16219;42.864;23.360;2023-01-28T09:47:43;95556.06;;;2.33;100.00
29169;BME280;16219;42.864;23.360;2023-01-28T09:50:15;95550.88;;;2.23;100.00
29169;BME280;16219;42.864;23.360;2023-01-28T09:52:43;95558.94;;;2.32;100.00
29169;BME280;16219;42.864;23.360;2023-01-28T09:55:29;95552.63;;;2.58;100.00
29169;BME280;16219;42.864;23.360;2023-01-28T09:57:59;95555.47;;;2.72;100.00
29169;BME280;16219;42.864;23.360;2023-01-28T10:00:31;95547.91;;;2.70;100.00
29169;BME280;16219;42.864;23.360;2023-01-28T10:03:12;95558.03;;;2.82;100.00
29169;BME280;16219;42.864;23.360;2023-01-28T10:05:52;95555.38;;;2.97;100.00
29169;BME280;16219;42.864;23.360;2023-01-28T10:08:38;95554.78;;;3.11;100.00
29169;BME280;16219;42.864;23.360;2023-01-28T10:11:16;95553.69;;;3.17;100.00
29169;BME280;16219;42.864;23.360;2023-01-28T10:13:51;95561.19;;;3.34;100.00
29169;BME280;16219;42.864;23.360;2023-01-28T10:16:28;95559.34;;;3.34;100.00
29169;BME280;16219;42.864;23.360;2023-01-28T10:19:02;95559.44;;;3.19;100.00
29169;BME280;16219;42.864;23.360;2023-01-28T10:21:36;95556.59;;;3.15;100.00
29169;BME280;16219;42.864;23.360;2023-01-28T10:24:09;95551.63;;;3.14;100.00
29169;BME280;16219;42.864;23.360;2023-01-28T10:26:42;95555.59;;;3.06;100.00
29169;BME280;16219;42.864;23.360;2023-01-28T10:29:14;95551.09;;;3.17;100.00
29169;BME280;16219;42.864;23.360;2023-01-28T10:31:50;95555.50;;;3.21;100.00
29169;BME280;16219;42.864;23.360;2023-01-28T10:34:18;95555.22;;;3.28;100.00
29169;BME280;16219;42.864;23.360;2023-01-28T10:36:46;95549.75;;;3.24;100.00
29169;BME280;16219;42.864;23.360;2023-01-28T10:39:14;95554.69;;;3.26;100.00
29169;BME280;16219;42.864;23.360;2023-01-28T10:41:43;95550.47;;;3.40;100.00
29169;BME280;16219;42.864;23.360;2023-01-28T10:44:17;95554.31;;;3.48;100.00
29169;BME280;16219;42.864;23.360;2023-01-28T10:46:47;95559.22;;;3.55;100.00
29169;BME280;16219;42.864;23.360;2023-01-28T10:49:21;95545.91;;;3.56;100.00
29169;BME280;16219;42.864;23.360;2023-01-28T10:51:49;95536.84;;;3.48;100.00
29169;BME280;16219;42.864;23.360;2023-01-28T10:54:20;95544.69;;;3.48;100.00
29169;BME280;16219;42.864;23.360;2023-01-28T10:56:51;95545.16;;;3.50;100.00
29169;BME280;16219;42.864;23.360;2023-01-28T10:59:24;95553.44;;;3.63;100.00
29169;BME280;16219;42.864;23.360;2023-01-28T11:01:53;95545.53;;;3.73;100.00
29169;BME280;16219;42.864;23.360;2023-01-28T11:04:23;95552.78;;;3.81;100.00
29169;BME280;16219;42.864;23.360;2023-01-28T11:06:55;95546.94;;;3.94;100.00
29169;BME280;16219;42.864;23.360;2023-01-28T11:09:25;95551.63;;;3.97;100.00
29169;BME280;16219;42.864;23.360;2023-01-28T11:11:52;95554.19;;;4.03;100.00
29169;BME280;16219;42.864;23.360;2023-01-28T11:14:22;95552.63;;;4.01;100.00
29169;BME280;16219;42.864;23.360;2023-01-28T11:16:51;95549.53;;;3.99;100.00
29169;BME280;16219;42.864;23.360;2023-01-28T11:19:21;95547.94;;;3.98;100.00
29169;BME280;16219;42.864;23.360;2023-01-28T11:21:52;95536.69;;;4.03;100.00
29169;BME280;16219;42.864;23.360;2023-01-28T11:24:22;95548.66;;;4.09;100.00
29169;BME280;16219;42.864;23.360;2023-01-28T11:26:52;95539.63;;;3.96;100.00
29169;BME280;16219;42.864;23.360;2023-01-28T11:29:25;95548.41;;;4.06;100.00
29169;BME280;16219;42.864;23.360;2023-01-28T11:31:53;95539.25;;;3.79;100.00
29169;BME280;16219;42.864;23.360;2023-01-28T11:34:24;95537.22;;;3.71;100.00
29169;BME280;16219;42.864;23.360;2023-01-28T11:36:53;95534.25;;;3.48;100.00
29169;BME280;16219;42.864;23.360;2023-01-28T11:39:22;95529.56;;;3.45;100.00
29169;BME280;16219;42.864;23.360;2023-01-28T11:41:52;95534.00;;;3.45;100.00
29169;BME280;16219;42.864;23.360;2023-01-28T11:44:23;95542.13;;;3.38;100.00
29169;BME280;16219;42.864;23.360;2023-01-28T11:47:20;95533.38;;;3.19;100.00
29169;BME280;16219;42.864;23.360;2023-01-28T11:50:03;95537.00;;;3.23;100.00
29169;BME280;16219;42.864;23.360;2023-01-28T11:52:40;95535.97;;;3.19;100.00
29169;BME280;16219;42.864;23.360;2023-01-28T11:55:21;95538.06;;;3.17;100.00
29169;BME280;16219;42.864;23.360;2023-01-28T11:57:57;95524.47;;;3.25;100.00
29169;BME280;16219;42.864;23.360;2023-01-28T12:00:44;95532.66;;;3.47;100.00
29169;BME280;16219;42.864;23.360;2023-01-28T12:03:38;95524.84;;;3.53;100.00
29169;BME280;16219;42.864;23.360;2023-01-28T12:06:26;95522.56;;;3.75;100.00
29169;BME280;16219;42.864;23.360;2023-01-28T12:09:00;95506.44;;;3.68;100.00
29169;BME280;16219;42.864;23.360;2023-01-28T12:11:40;95526.88;;;3.90;100.00
29169;BME280;16219;42.864;23.360;2023-01-28T12:14:28;95526.53;;;4.01;100.00
29169;BME280;16219;42.864;23.360;2023-01-28T12:17:08;95522.41;;;3.95;100.00
29169;BME280;16219;42.864;23.360;2023-01-28T12:22:49;95529.72;;;3.93;100.00
29169;BME280;16219;42.864;23.360;2023-01-28T12:25:25;95533.56;;;4.01;100.00
29169;BME280;16219;42.864;23.360;2023-01-28T12:28:00;95515.63;;;3.94;100.00
29169;BME280;16219;42.864;23.360;2023-01-28T12:30:53;95520.53;;;4.01;100.00
29169;BME280;16219;42.864;23.360;2023-01-28T12:33:39;95530.03;;;4.16;100.00
29169;BME280;16219;42.864;23.360;2023-01-28T12:36:19;95530.09;;;4.11;100.00
29169;BME280;16219;42.864;23.360;2023-01-28T12:38:58;95529.09;;;4.07;100.00
29169;BME280;16219;42.864;23.360;2023-01-28T12:41:33;95532.66;;;4.16;100.00
29169;BME280;16219;42.864;23.360;2023-01-28T12:44:04;95531.97;;;4.05;100.00
29169;BME280;16219;42.864;23.360;2023-01-28T12:46:39;95540.63;;;4.00;100.00
29169;BME280;16219;42.864;23.360;2023-01-28T12:49:13;95537.00;;;3.96;100.00
29169;BME280;16219;42.864;23.360;2023-01-28T12:51:52;95546.91;;;3.99;100.00
29169;BME280;16219;42.864;23.360;2023-01-28T12:54:25;95535.66;;;4.04;100.00
29169;BME280;16219;42.864;23.360;2023-01-28T12:56:54;95543.72;;;4.03;100.00
29169;BME280;16219;42.864;23.360;2023-01-28T12:59:27;95542.28;;;3.86;100.00
29169;BME280;16219;42.864;23.360;2023-01-28T13:02:02;95550.38;;;3.90;100.00
29169;BME280;16219;42.864;23.360;2023-01-28T13:04:37;95556.84;;;3.97;100.00
29169;BME280;16219;42.864;23.360;2023-01-28T13:07:11;95555.81;;;3.93;100.00
29169;BME280;16219;42.864;23.360;2023-01-28T13:09:48;95555.31;;;3.91;100.00
29169;BME280;16219;42.864;23.360;2023-01-28T13:12:17;95541.84;;;3.79;100.00
29169;BME280;16219;42.864;23.360;2023-01-28T13:14:47;95562.41;;;3.86;100.00
29169;BME280;16219;42.864;23.360;2023-01-28T13:17:25;95567.38;;;3.82;100.00
29169;BME280;16219;42.864;23.360;2023-01-28T13:19:54;95568.19;;;3.78;100.00
29169;BME280;16219;42.864;23.360;2023-01-28T13:22:27;95567.78;;;3.65;100.00